Time;durP1;ratioP1;P1;durP2;ratioP2;P2;SDS_P1;SDS_P2;PMS_P1;PMS_P2;Temp;Humidity;BMP_temperature;BMP_pressure;BME280_temperature;BME280_humidity;BME280_pressure;Samples;Min_cycle;Max_cycle;Signal;HPM_P1;HPM_P2
2023/07/07 00:01:02;;;;;;;7.57;1.70;;;;;;;19.37;98.67;100884.03;5058776;28;20095;-71
2023/07/07 00:03:28;;;;;;;4.50;1.58;;;;;;;19.35;99.20;100875.47;5056760;28;20079;-71
2023/07/07 00:05:53;;;;;;;5.15;1.55;;;;;;;19.37;99.76;100876.09;5067520;28;20468;-72
2023/07/07 00:08:19;;;;;;;2.20;1.40;;;;;;;19.34;99.15;100883.59;5068236;28;20380;-72
2023/07/07 00:10:44;;;;;;;2.38;1.58;;;;;;;19.33;99.53;100877.50;5057669;28;20039;-71
2023/07/07 00:13:11;;;;;;;5.47;1.30;;;;;;;19.38;98.99;100876.88;5056338;28;20121;-72
2023/07/07 00:15:37;;;;;;;2.90;1.40;;;;;;;19.39;98.98;100874.06;5056495;28;20553;-72
2023/07/07 00:18:03;;;;;;;2.97;1.40;;;;;;;19.38;98.17;100869.78;5064209;28;20033;-72
2023/07/07 00:20:31;;;;;;;4.18;1.10;;;;;;;19.45;98.16;100872.47;5059342;28;20033;-71
2023/07/07 00:22:58;;;;;;;2.25;1.27;;;;;;;19.46;95.66;100864.34;5059557;28;20036;-72
2023/07/07 00:25:24;;;;;;;2.38;1.02;;;;;;;19.83;90.27;100870.31;5056761;28;20036;-71
2023/07/07 00:27:49;;;;;;;3.05;1.02;;;;;;;20.01;90.90;100865.31;5066045;28;20078;-72
2023/07/07 00:30:15;;;;;;;2.47;1.27;;;;;;;19.99;91.35;100869.97;5058142;28;20049;-71
2023/07/07 00:32:40;;;;;;;5.00;1.20;;;;;;;19.94;91.69;100876.88;5064078;28;20024;-72
2023/07/07 00:35:07;;;;;;;2.25;1.65;;;;;;;19.97;92.23;100877.28;5063025;28;20028;-71
2023/07/07 00:37:33;;;;;;;2.22;1.10;;;;;;;19.95;92.50;100878.50;5064838;28;20472;-71
2023/07/07 00:39:58;;;;;;;1.60;0.90;;;;;;;19.92;92.78;100879.72;5067880;28;20486;-72
2023/07/07 00:42:24;;;;;;;5.93;0.95;;;;;;;19.89;92.77;100875.63;5055074;28;20052;-72
2023/07/07 00:45:11;;;;;;;2.58;1.10;;;;;;;19.89;92.83;100870.34;5061874;28;20460;-73
2023/07/07 00:47:49;;;;;;;2.08;0.98;;;;;;;19.89;92.85;100874.81;5069436;28;20115;-73
2023/07/07 00:50:18;;;;;;;2.50;0.93;;;;;;;19.93;92.65;100870.75;5065065;28;20036;-72
2023/07/07 00:52:45;;;;;;;4.38;0.88;;;;;;;19.96;93.02;100878.31;5062275;28;20028;-72
2023/07/07 00:55:16;;;;;;;2.25;1.15;;;;;;;19.91;94.11;100888.66;5063818;28;20036;-72
2023/07/07 00:57:42;;;;;;;3.03;1.80;;;;;;;19.82;95.17;100892.50;5064306;28;20037;-71
2023/07/07 01:00:09;;;;;;;3.08;1.23;;;;;;;19.74;96.26;100892.63;5063656;28;20039;-72
2023/07/07 01:02:34;;;;;;;4.05;1.42;;;;;;;19.64;96.92;100892.97;5065661;28;20056;-72
2023/07/07 01:05:03;;;;;;;2.13;1.15;;;;;;;19.59;98.02;100897.22;5065049;28;20105;-70
2023/07/07 01:07:38;;;;;;;3.20;1.42;;;;;;;19.47;98.89;100894.25;5065223;28;20461;-72
2023/07/07 01:10:04;;;;;;;1.98;0.90;;;;;;;19.40;100.00;100893.38;5069004;28;20028;-71
2023/07/07 01:12:30;;;;;;;1.83;0.77;;;;;;;19.29;100.00;100899.19;5066066;28;20055;-72
2023/07/07 01:14:56;;;;;;;3.55;1.30;;;;;;;19.21;100.00;100897.50;5065227;28;20028;-72
2023/07/07 01:17:34;;;;;;;2.70;1.13;;;;;;;19.17;100.00;100891.78;5067378;28;20052;-72
2023/07/07 01:20:12;;;;;;;3.78;1.13;;;;;;;19.18;100.00;100892.59;5065616;28;20029;-72
2023/07/07 01:23:15;;;;;;;1.40;1.00;;;;;;;19.16;100.00;100891.97;5059760;28;20404;-72
2023/07/07 01:25:40;;;;;;;1.60;0.93;;;;;;;19.18;100.00;100888.13;5066710;28;20056;-72
2023/07/07 01:28:12;;;;;;;2.20;1.60;;;;;;;19.13;100.00;100895.00;5067542;28;20481;-72
2023/07/07 01:30:48;;;;;;;2.63;1.67;;;;;;;19.15;100.00;100892.97;5065200;28;20043;-72
2023/07/07 01:33:18;;;;;;;2.08;1.08;;;;;;;19.12;100.00;100890.72;5063968;28;20094;-72
2023/07/07 01:35:44;;;;;;;1.98;1.17;;;;;;;19.09;100.00;100899.00;5057011;28;20068;-72
2023/07/07 01:38:31;;;;;;;2.75;1.00;;;;;;;18.98;100.00;100891.59;5052099;28;20033;-71
2023/07/07 01:41:17;;;;;;;4.05;2.00;;;;;;;18.98;100.00;100891.59;5063073;28;20119;-73
2023/07/07 01:43:57;;;;;;;2.45;0.98;;;;;;;18.98;100.00;100892.41;5054513;28;20486;-72
2023/07/07 01:46:36;;;;;;;3.85;1.45;;;;;;;18.99;100.00;100895.88;5067022;28;20042;-71
2023/07/07 01:49:09;;;;;;;1.75;1.08;;;;;;;19.00;100.00;100895.69;5063273;28;20024;-71
2023/07/07 01:51:45;;;;;;;3.08;1.30;;;;;;;18.95;100.00;100903.34;5062369;28;20090;-71
2023/07/07 01:54:12;;;;;;;4.07;1.30;;;;;;;18.88;100.00;100903.31;5061020;28;20112;-71
2023/07/07 01:56:38;;;;;;;5.85;1.65;;;;;;;18.82;100.00;100904.06;5055110;28;20568;-71
2023/07/07 01:59:04;;;;;;;2.78;1.33;;;;;;;18.79;100.00;100898.34;5061041;28;20169;-72
2023/07/07 02:01:30;;;;;;;1.80;1.10;;;;;;;18.78;100.00;100902.78;5065689;28;20072;-72
2023/07/07 02:03:55;;;;;;;1.65;0.95;;;;;;;18.78;100.00;100908.06;5062808;28;20063;-72
2023/07/07 02:06:21;;;;;;;2.08;1.15;;;;;;;18.75;100.00;100907.63;5057091;28;20471;-72
2023/07/07 02:08:46;;;;;;;2.60;1.08;;;;;;;18.76;100.00;100909.25;5063142;28;20063;-72
2023/07/07 02:11:12;;;;;;;2.42;1.20;;;;;;;18.75;100.00;100911.09;5058746;28;20025;-72
2023/07/07 02:13:38;;;;;;;2.50;1.20;;;;;;;18.84;100.00;100912.59;5059177;28;20064;-72
2023/07/07 02:16:04;;;;;;;1.90;0.70;;;;;;;18.83;100.00;100913.63;5063454;28;20100;-71
2023/07/07 02:18:30;;;;;;;2.25;0.88;;;;;;;18.81;100.00;100914.81;5065951;28;20025;-71
2023/07/07 02:20:55;;;;;;;2.10;0.80;;;;;;;18.75;100.00;100919.00;5063509;28;20045;-73
2023/07/07 02:23:21;;;;;;;2.65;1.00;;;;;;;18.73;100.00;100926.28;5059283;28;20033;-72
2023/07/07 02:25:46;;;;;;;3.58;0.82;;;;;;;18.82;99.35;100924.34;5063449;28;20033;-72
2023/07/07 02:28:12;;;;;;;1.52;0.88;;;;;;;18.88;99.88;100921.78;5068714;28;20086;-72
2023/07/07 02:30:37;;;;;;;2.92;1.00;;;;;;;18.89;100.00;100919.97;5057474;28;20098;-72
2023/07/07 02:33:03;;;;;;;2.55;0.95;;;;;;;18.92;100.00;100924.03;5071552;28;20135;-71
2023/07/07 02:35:31;;;;;;;1.92;1.00;;;;;;;18.93;99.75;100921.19;5059942;28;20464;-72
2023/07/07 02:37:56;;;;;;;1.67;1.00;;;;;;;18.96;99.27;100914.72;5074975;28;20056;-72
2023/07/07 02:40:21;;;;;;;1.73;0.82;;;;;;;18.97;99.33;100911.91;5063674;28;20073;-72
2023/07/07 02:42:47;;;;;;;1.63;1.10;;;;;;;18.97;99.53;100905.81;5069182;28;20135;-72
2023/07/07 02:45:14;;;;;;;2.67;0.93;;;;;;;18.89;99.63;100912.88;5067958;28;20124;-72
2023/07/07 02:47:39;;;;;;;1.63;0.82;;;;;;;18.96;96.52;100901.53;5068122;28;20037;-72
2023/07/07 02:50:05;;;;;;;4.20;1.00;;;;;;;19.10;93.43;100903.28;5062385;28;20028;-72
2023/07/07 02:52:30;;;;;;;3.10;0.80;;;;;;;19.34;90.36;100902.09;5059817;28;20025;-71
2023/07/07 02:54:56;;;;;;;2.28;1.00;;;;;;;19.47;88.42;100902.16;5064063;28;20484;-72
2023/07/07 02:57:21;;;;;;;3.75;0.98;;;;;;;19.52;89.75;100905.91;5067883;28;20028;-71
2023/07/07 02:59:47;;;;;;;2.30;0.70;;;;;;;19.35;92.31;100909.00;5063528;28;20040;-71
2023/07/07 03:02:12;;;;;;;2.42;1.20;;;;;;;19.11;93.83;100910.22;5061202;28;20369;-71
2023/07/07 03:04:38;;;;;;;2.25;0.77;;;;;;;18.97;94.72;100900.53;5062320;28;20032;-71
2023/07/07 03:07:03;;;;;;;2.33;0.75;;;;;;;18.87;94.97;100904.31;5070976;28;20454;-71
2023/07/07 03:09:28;;;;;;;2.63;0.90;;;;;;;18.81;95.49;100907.69;5061909;28;20033;-71
2023/07/07 03:11:54;;;;;;;2.03;1.00;;;;;;;18.81;95.46;100914.81;5073285;28;20161;-71
2023/07/07 03:14:20;;;;;;;5.10;0.90;;;;;;;18.94;93.87;100901.72;5072307;28;20033;-71
2023/07/07 03:16:51;;;;;;;5.35;0.90;;;;;;;19.00;93.81;100905.44;5069927;28;20020;-71
2023/07/07 03:19:17;;;;;;;2.90;1.10;;;;;;;18.98;94.15;100904.78;5063998;28;20037;-71
2023/07/07 03:21:43;;;;;;;2.67;0.90;;;;;;;18.97;94.70;100903.16;5066649;28;20031;-72
2023/07/07 03:24:08;;;;;;;2.35;1.45;;;;;;;18.90;95.63;100908.41;5067864;28;20021;-72
2023/07/07 03:26:34;;;;;;;2.80;1.00;;;;;;;18.87;95.79;100912.22;5072808;28;20028;-71
2023/07/07 03:28:59;;;;;;;2.10;0.98;;;;;;;18.86;96.52;100928.25;5070705;28;20032;-71
2023/07/07 03:31:30;;;;;;;2.58;0.93;;;;;;;18.80;96.59;100927.19;5068484;28;20387;-72
2023/07/07 03:34:02;;;;;;;6.63;0.95;;;;;;;18.82;97.27;100935.72;5068328;28;20028;-72
2023/07/07 03:36:28;;;;;;;2.33;1.10;;;;;;;18.80;96.89;100940.38;5065434;28;20090;-71
2023/07/07 03:38:55;;;;;;;2.35;1.20;;;;;;;18.76;97.48;100943.59;5068161;28;20481;-72
2023/07/07 03:41:23;;;;;;;3.67;0.77;;;;;;;18.75;97.64;100945.41;5060438;28;20412;-71
2023/07/07 03:43:50;;;;;;;2.05;1.15;;;;;;;18.76;97.95;100947.03;5066155;28;20078;-71
2023/07/07 03:46:18;;;;;;;2.30;1.08;;;;;;;18.72;98.00;100956.31;5065249;28;20146;-71
2023/07/07 03:48:44;;;;;;;3.50;1.38;;;;;;;18.73;98.63;100957.16;5065349;28;20036;-71
2023/07/07 03:51:12;;;;;;;4.28;0.95;;;;;;;18.78;98.22;100947.66;5068250;28;20039;-72
2023/07/07 03:53:38;;;;;;;4.13;1.08;;;;;;;18.83;98.43;100960.31;5065659;28;20037;-72
2023/07/07 03:56:05;;;;;;;2.00;1.00;;;;;;;18.82;98.58;100958.69;5064510;28;20098;-71
2023/07/07 03:58:30;;;;;;;3.20;1.10;;;;;;;18.70;97.10;100958.34;5065900;28;20119;-71
2023/07/07 04:01:07;;;;;;;4.85;1.45;;;;;;;18.73;94.97;100968.53;5069056;28;20444;-71
2023/07/07 04:03:33;;;;;;;2.08;1.05;;;;;;;18.85;94.88;100972.31;5066286;28;20055;-71
2023/07/07 04:05:59;;;;;;;2.47;1.02;;;;;;;18.94;95.05;100972.19;5075285;28;20040;-71
2023/07/07 04:08:26;;;;;;;2.08;0.85;;;;;;;18.99;95.38;100972.44;5070036;28;20016;-69
2023/07/07 04:11:04;;;;;;;4.50;1.50;;;;;;;18.98;96.27;100976.09;5064433;28;20028;-69
2023/07/07 04:13:31;;;;;;;2.75;1.25;;;;;;;18.95;96.16;100977.28;5067190;28;20052;-68
2023/07/07 04:16:15;;;;;;;2.65;1.20;;;;;;;18.92;96.45;100968.91;5063107;28;20028;-69
2023/07/07 04:18:42;;;;;;;1.85;1.20;;;;;;;18.95;97.09;100984.38;5068159;28;20041;-69
2023/07/07 04:21:10;;;;;;;2.60;1.17;;;;;;;18.95;97.10;100981.75;5069982;28;20162;-68
2023/07/07 04:23:38;;;;;;;2.38;1.20;;;;;;;18.92;97.19;100979.47;5061433;28;20043;-69
2023/07/07 04:26:04;;;;;;;5.70;1.50;;;;;;;18.83;96.99;100984.88;5074450;28;20029;-69
2023/07/07 04:28:30;;;;;;;2.30;1.05;;;;;;;18.82;97.60;100979.78;5059350;28;20033;-68
2023/07/07 04:30:58;;;;;;;2.95;1.10;;;;;;;18.86;98.00;100984.53;5055873;28;20402;-69
2023/07/07 04:33:26;;;;;;;3.45;1.30;;;;;;;18.87;98.60;100986.16;5064612;28;20044;-68
2023/07/07 04:35:56;;;;;;;2.28;0.98;;;;;;;18.94;98.55;100980.09;5050986;28;20032;-69
2023/07/07 04:38:30;;;;;;;3.15;1.27;;;;;;;19.00;98.46;100974.91;5057613;28;20068;-68
2023/07/07 04:41:11;;;;;;;1.92;0.95;;;;;;;19.04;98.63;100985.91;5061763;28;20040;-68
2023/07/07 04:43:39;;;;;;;2.75;0.90;;;;;;;19.04;98.70;100991.19;5058385;28;20032;-68
2023/07/07 04:46:06;;;;;;;6.30;1.27;;;;;;;19.04;98.99;100985.91;5055958;28;20043;-68
2023/07/07 04:48:32;;;;;;;1.60;0.73;;;;;;;19.10;98.61;100993.09;5061033;28;20556;-68
2023/07/07 04:50:59;;;;;;;4.18;1.50;;;;;;;19.19;97.58;100994.59;5059733;28;20037;-69
2023/07/07 04:53:28;;;;;;;6.45;1.10;;;;;;;19.22;95.61;100999.50;5061745;28;20028;-69
2023/07/07 04:55:55;;;;;;;3.47;1.20;;;;;;;19.40;94.76;101007.81;5060713;28;20086;-68
2023/07/07 04:58:21;;;;;;;4.72;1.08;;;;;;;19.51;93.65;101001.22;5062856;28;20435;-68
2023/07/07 05:00:47;;;;;;;5.82;0.85;;;;;;;19.65;92.71;101004.81;5057691;28;20373;-68
2023/07/07 05:03:13;;;;;;;3.65;2.08;;;;;;;19.67;91.33;101002.78;5058454;28;20051;-69
2023/07/07 05:05:38;;;;;;;4.10;1.70;;;;;;;19.74;91.70;101007.13;5057148;28;20378;-69
2023/07/07 05:08:05;;;;;;;3.85;1.92;;;;;;;19.95;91.42;101008.09;5067710;28;20035;-68
2023/07/07 05:10:31;;;;;;;3.60;1.70;;;;;;;20.14;91.53;101013.53;5062290;28;20024;-68
2023/07/07 05:12:56;;;;;;;6.53;1.80;;;;;;;20.26;91.59;101016.44;5058946;28;20032;-68
2023/07/07 05:15:24;;;;;;;5.93;2.05;;;;;;;20.39;91.47;101008.59;5063384;28;20388;-68
2023/07/07 05:17:50;;;;;;;5.88;2.22;;;;;;;20.53;90.77;101012.13;5061753;28;20021;-68
2023/07/07 05:20:16;;;;;;;3.13;1.50;;;;;;;20.56;90.80;101017.03;5070369;28;20529;-69
2023/07/07 05:22:41;;;;;;;5.80;2.20;;;;;;;20.58;91.79;101017.66;5061754;28;20127;-69
2023/07/07 05:25:07;;;;;;;6.53;1.55;;;;;;;20.60;92.32;101014.81;5070550;28;20511;-68
2023/07/07 05:27:32;;;;;;;5.53;1.67;;;;;;;20.55;92.96;101018.03;5071721;28;20036;-70
2023/07/07 05:29:58;;;;;;;5.85;1.45;;;;;;;20.52;93.64;101023.72;5062116;28;20032;-69
2023/07/07 05:32:23;;;;;;;2.63;1.33;;;;;;;20.61;93.04;101025.22;5071750;28;20036;-69
2023/07/07 05:34:52;;;;;;;3.63;1.52;;;;;;;20.67;91.61;101037.66;5069192;28;20031;-69
2023/07/07 05:37:17;;;;;;;3.65;1.60;;;;;;;20.88;90.22;101034.88;5064641;28;20170;-69
2023/07/07 05:39:47;;;;;;;6.68;1.38;;;;;;;21.11;88.24;101034.56;5066672;28;20124;-70
2023/07/07 05:42:13;;;;;;;3.67;1.00;;;;;;;21.29;86.41;101039.31;5061672;28;20182;-69
2023/07/07 05:44:38;;;;;;;2.00;1.10;;;;;;;21.36;85.98;101041.97;5063382;28;20557;-69
2023/07/07 05:47:04;;;;;;;6.35;1.48;;;;;;;21.47;85.25;101039.53;5064993;28;20491;-68
2023/07/07 05:49:29;;;;;;;2.45;1.45;;;;;;;21.57;81.85;101041.81;5065936;28;20029;-69
2023/07/07 05:51:55;;;;;;;3.67;1.42;;;;;;;21.83;79.75;101041.00;5066025;28;20351;-69
2023/07/07 05:54:21;;;;;;;4.78;2.53;;;;;;;22.05;75.37;101041.63;5068599;28;20507;-68
2023/07/07 05:56:46;;;;;;;6.43;1.98;;;;;;;22.23;72.32;101051.59;5074237;28;22963;-70
2023/07/07 05:59:12;;;;;;;4.63;2.72;;;;;;;22.40;69.14;101055.44;5065368;28;20369;-69
2023/07/07 06:01:38;;;;;;;5.93;2.17;;;;;;;22.53;67.25;101052.75;5070572;28;20033;-70
2023/07/07 06:04:04;;;;;;;7.43;2.30;;;;;;;22.65;67.57;101051.09;5066644;28;20036;-68
2023/07/07 06:06:29;;;;;;;2.97;1.88;;;;;;;22.76;67.28;101045.09;5066637;28;20353;-69
2023/07/07 06:08:55;;;;;;;3.78;2.10;;;;;;;22.88;66.70;101047.97;5071346;28;20158;-69
2023/07/07 06:11:20;;;;;;;11.85;2.00;;;;;;;23.00;65.37;101050.78;5063719;28;20040;-68
2023/07/07 06:13:45;;;;;;;3.78;2.28;;;;;;;23.10;63.50;101051.13;5069510;28;20025;-69
2023/07/07 06:16:11;;;;;;;8.77;2.17;;;;;;;23.21;63.39;101041.66;5072069;28;20047;-69
2023/07/07 06:18:36;;;;;;;4.90;2.35;;;;;;;23.28;63.51;101048.56;5069644;28;20040;-69
2023/07/07 06:21:02;;;;;;;4.00;2.28;;;;;;;23.36;64.00;101050.97;5067663;28;20028;-70
2023/07/07 06:23:29;;;;;;;4.07;1.95;;;;;;;23.40;63.16;101051.34;5063837;28;20037;-69
2023/07/07 06:25:54;;;;;;;5.03;1.85;;;;;;;23.40;63.02;101044.19;5072604;28;20111;-69
2023/07/07 06:28:21;;;;;;;4.38;2.13;;;;;;;23.43;62.27;101045.59;5061264;28;20036;-69
2023/07/07 06:30:48;;;;;;;6.38;1.92;;;;;;;23.52;62.26;101054.97;5061939;28;20028;-69
2023/07/07 06:33:14;;;;;;;2.90;1.88;;;;;;;23.60;61.57;101057.41;5064741;28;20039;-71
2023/07/07 06:35:42;;;;;;;5.20;1.73;;;;;;;23.62;60.50;101059.84;5063778;28;20057;-69
2023/07/07 06:38:08;;;;;;;6.57;1.55;;;;;;;23.75;59.57;101065.03;5062925;28;20373;-70
2023/07/07 06:40:34;;;;;;;7.60;1.67;;;;;;;23.85;58.65;101059.25;5064381;28;20132;-69
2023/07/07 06:43:01;;;;;;;5.45;1.75;;;;;;;23.86;58.94;101064.34;5063504;28;20086;-70
2023/07/07 06:45:27;;;;;;;10.88;2.20;;;;;;;23.89;58.55;101066.56;5058149;28;20106;-65
2023/07/07 06:47:54;;;;;;;5.78;1.42;;;;;;;23.94;58.17;101066.72;5070510;28;20036;-67
2023/07/07 06:50:31;;;;;;;6.32;1.58;;;;;;;24.07;56.14;101074.63;5063625;28;20028;-67
2023/07/07 06:52:57;;;;;;;7.40;2.08;;;;;;;24.15;56.79;101076.97;5063532;28;20115;-69
2023/07/07 06:55:23;;;;;;;2.33;1.27;;;;;;;24.19;57.44;101081.84;5065181;28;20539;-67
2023/07/07 06:57:49;;;;;;;6.00;1.75;;;;;;;24.26;56.23;101077.31;5068770;28;20036;-66
2023/07/07 07:00:16;;;;;;;2.50;1.60;;;;;;;24.33;55.87;101075.41;5064347;28;20039;-67
2023/07/07 07:02:44;;;;;;;2.58;1.58;;;;;;;24.36;54.95;101077.63;5066550;28;20173;-66
2023/07/07 07:05:09;;;;;;;4.13;1.52;;;;;;;24.36;54.98;101081.13;5072994;28;20058;-66
2023/07/07 07:07:35;;;;;;;5.35;1.73;;;;;;;24.41;55.54;101077.78;5067923;28;20037;-67
2023/07/07 07:10:02;;;;;;;9.13;2.40;;;;;;;24.56;54.65;101072.09;5072647;28;20444;-66
2023/07/07 07:12:29;;;;;;;7.65;2.35;;;;;;;24.65;53.11;101081.41;5073767;28;20020;-66
2023/07/07 07:14:54;;;;;;;5.78;2.22;;;;;;;24.73;53.47;101084.59;5066906;28;20036;-67
2023/07/07 07:17:22;;;;;;;7.95;1.88;;;;;;;24.93;53.68;101089.69;5072421;28;20090;-66
2023/07/07 07:19:47;;;;;;;3.35;1.92;;;;;;;25.02;53.10;101087.56;5069938;28;20051;-67
2023/07/07 07:22:13;;;;;;;5.35;2.25;;;;;;;25.03;52.77;101082.03;5066532;28;20028;-66
2023/07/07 07:24:38;;;;;;;4.72;1.98;;;;;;;25.03;54.17;101089.19;5069608;28;20458;-66
2023/07/07 07:27:05;;;;;;;4.35;2.10;;;;;;;25.21;55.12;101099.81;5074958;28;20035;-67
2023/07/07 07:29:30;;;;;;;3.08;1.95;;;;;;;25.44;56.13;101101.78;5067564;28;20484;-68
2023/07/07 07:31:56;;;;;;;3.47;2.03;;;;;;;25.64;56.56;101096.97;5067767;28;20028;-67
2023/07/07 07:34:30;;;;;;;3.95;2.30;;;;;;;25.71;55.91;101103.03;5062925;28;20033;-67
2023/07/07 07:36:59;;;;;;;2.67;1.83;;;;;;;25.71;56.03;101108.34;5057221;28;20435;-67
2023/07/07 07:39:26;;;;;;;2.40;1.80;;;;;;;25.76;55.66;101116.50;5062601;28;20055;-67
2023/07/07 07:41:55;;;;;;;5.25;1.95;;;;;;;25.94;55.29;101112.13;5057194;28;20380;-67
2023/07/07 07:44:24;;;;;;;3.30;2.00;;;;;;;26.06;55.14;101105.72;5052924;28;20087;-67
2023/07/07 07:46:51;;;;;;;4.70;1.92;;;;;;;26.08;55.19;101114.31;5061559;28;20059;-67
2023/07/07 07:49:17;;;;;;;3.00;1.80;;;;;;;26.05;54.94;101114.78;5068670;28;20021;-67
2023/07/07 07:51:44;;;;;;;2.28;1.65;;;;;;;26.16;55.46;101123.03;5065316;28;20036;-66
2023/07/07 07:54:12;;;;;;;4.78;2.13;;;;;;;26.35;54.11;101125.41;5055663;28;20109;-67
2023/07/07 07:56:38;;;;;;;2.58;1.67;;;;;;;26.41;53.86;101127.16;5052689;28;20127;-67
2023/07/07 07:59:05;;;;;;;3.05;1.75;;;;;;;26.39;53.28;101129.25;5072141;28;20064;-68
2023/07/07 08:01:31;;;;;;;2.40;1.70;;;;;;;26.46;53.38;101126.44;5067963;28;20028;-67
2023/07/07 08:03:56;;;;;;;3.83;1.70;;;;;;;26.62;53.19;101131.06;5060640;28;20507;-67
2023/07/07 08:06:22;;;;;;;3.90;2.80;;;;;;;26.76;53.41;101121.75;5070090;28;20056;-67
2023/07/07 08:08:47;;;;;;;3.78;1.75;;;;;;;26.60;51.76;101137.69;5067066;28;20032;-66
2023/07/07 08:11:17;;;;;;;2.75;1.80;;;;;;;26.38;51.72;101132.97;5069521;28;20024;-67
2023/07/07 08:13:43;;;;;;;2.88;2.00;;;;;;;26.32;52.27;101125.06;5063377;28;20418;-67
2023/07/07 08:16:10;;;;;;;3.00;2.05;;;;;;;26.40;52.36;101130.06;5073333;28;20128;-66
2023/07/07 08:18:36;;;;;;;3.08;2.50;;;;;;;26.72;52.86;101130.47;5062283;28;20388;-67
2023/07/07 08:21:03;;;;;;;2.35;1.60;;;;;;;26.99;52.42;101136.13;5065261;28;20423;-67
2023/07/07 08:23:29;;;;;;;5.13;2.03;;;;;;;26.86;51.43;101141.72;5061689;28;20040;-67
2023/07/07 08:25:54;;;;;;;2.50;1.85;;;;;;;26.89;50.95;101136.72;5069431;28;20392;-66
2023/07/07 08:28:20;;;;;;;3.55;1.85;;;;;;;26.85;50.62;101140.91;5063186;28;20040;-67
2023/07/07 08:30:45;;;;;;;2.92;1.35;;;;;;;26.73;49.49;101140.94;5061801;28;20039;-67
2023/07/07 08:33:12;;;;;;;3.15;1.92;;;;;;;26.75;50.01;101144.19;5060577;28;20431;-67
2023/07/07 08:35:38;;;;;;;2.00;1.50;;;;;;;26.97;50.03;101133.69;5066644;28;20036;-67
2023/07/07 08:38:04;;;;;;;4.20;2.08;;;;;;;27.05;50.01;101140.53;5063055;28;20036;-67
2023/07/07 08:40:36;;;;;;;3.20;1.75;;;;;;;27.10;50.66;101137.97;5058218;28;20357;-67
2023/07/07 08:43:01;;;;;;;3.25;1.80;;;;;;;27.14;50.55;101144.47;5065563;28;20029;-67
2023/07/07 08:45:27;;;;;;;2.58;1.73;;;;;;;27.40;50.54;101143.09;5069819;28;20476;-69
2023/07/07 08:48:21;;;;;;;3.13;1.92;;;;;;;27.40;49.29;101141.25;5065163;28;20032;-70
2023/07/07 08:50:56;;;;;;;2.25;1.70;;;;;;;27.03;48.95;101145.31;5063859;28;20555;-69
2023/07/07 08:53:37;;;;;;;3.00;2.00;;;;;;;27.05;48.99;101136.00;5068313;28;20033;-69
2023/07/07 08:56:32;;;;;;;2.55;1.67;;;;;;;27.03;49.63;101143.44;5060942;28;20032;-70
2023/07/07 08:59:18;;;;;;;2.72;1.77;;;;;;;27.35;48.53;101135.78;5059757;28;20090;-70
2023/07/07 09:01:54;;;;;;;2.95;1.92;;;;;;;27.54;48.49;101140.91;5065902;28;20024;-71
2023/07/07 09:04:26;;;;;;;3.50;1.70;;;;;;;27.63;49.03;101134.16;5061121;28;20070;-71
2023/07/07 09:07:04;;;;;;;2.85;1.50;;;;;;;27.53;48.61;101137.44;5066670;28;20029;-71
2023/07/07 09:09:51;;;;;;;4.65;1.77;;;;;;;27.22;47.76;101136.06;5066592;28;20081;-70
2023/07/07 09:12:41;;;;;;;8.95;2.42;;;;;;;27.17;47.38;101133.28;5068773;28;20028;-70
2023/07/07 09:15:27;;;;;;;6.03;2.25;;;;;;;27.22;47.19;101141.41;5064569;28;20056;-77
2023/07/07 09:17:58;;;;;;;3.22;2.13;;;;;;;27.49;47.64;101138.97;5058215;28;20032;-71
2023/07/07 09:20:28;;;;;;;3.45;1.23;;;;;;;27.47;47.98;101142.94;5053375;28;20538;-71
2023/07/07 09:23:17;;;;;;;2.35;1.67;;;;;;;27.51;47.10;101138.72;5066137;28;20077;-72
2023/07/07 09:25:50;;;;;;;1.95;1.75;;;;;;;27.79;47.36;101141.41;5068583;28;20028;-72
2023/07/07 09:28:17;;;;;;;2.60;1.83;;;;;;;28.07;47.20;101144.00;5068881;28;20097;-72
2023/07/07 09:30:48;;;;;;;2.88;2.10;;;;;;;28.07;46.36;101137.84;5068364;28;20041;-72
2023/07/07 09:33:19;;;;;;;2.22;1.88;;;;;;;27.98;46.66;101137.44;5055450;28;20028;-72
2023/07/07 09:36:20;;;;;;;2.88;1.65;;;;;;;27.90;46.48;101137.00;5067704;28;20179;-72
2023/07/07 09:38:58;;;;;;;2.97;1.60;;;;;;;27.61;46.29;101136.25;5063862;28;20476;-72
2023/07/07 09:42:01;;;;;;;3.33;1.73;;;;;;;27.76;46.63;101131.19;5064802;28;20036;-71
2023/07/07 09:44:45;;;;;;;3.00;1.90;;;;;;;27.87;46.77;101130.31;5061255;28;20111;-70
2023/07/07 09:47:19;;;;;;;4.32;1.85;;;;;;;27.81;46.78;101138.50;5068076;28;20070;-70
2023/07/07 09:49:57;;;;;;;3.07;2.23;;;;;;;27.81;46.44;101136.63;5064762;28;20473;-72
2023/07/07 09:52:41;;;;;;;5.28;2.08;;;;;;;27.92;46.29;101135.72;5068549;28;20359;-72
2023/07/07 09:55:15;;;;;;;2.45;1.60;;;;;;;27.93;46.62;101139.22;5065583;28;20043;-72
2023/07/07 09:57:47;;;;;;;2.10;1.73;;;;;;;28.23;46.58;101130.88;5065505;28;20033;-72
2023/07/07 10:00:17;;;;;;;3.90;1.35;;;;;;;28.48;44.86;101133.09;5068488;28;20033;-71
2023/07/07 10:02:45;;;;;;;3.10;1.83;;;;;;;28.56;45.17;101130.81;5072554;28;20058;-71
2023/07/07 10:05:19;;;;;;;4.32;1.63;;;;;;;28.55;45.32;101131.88;5072449;28;20112;-72
2023/07/07 10:07:45;;;;;;;3.45;2.20;;;;;;;28.47;45.28;101126.13;5067536;28;20036;-72
2023/07/07 10:10:14;;;;;;;2.17;1.60;;;;;;;28.45;45.38;101130.91;5062863;28;20032;-71
2023/07/07 10:12:49;;;;;;;4.32;1.40;;;;;;;28.49;45.78;101134.72;5066217;28;20391;-72
2023/07/07 10:15:19;;;;;;;;;;;;;;;28.48;45.58;101125.88;5059110;28;20040;-72
2023/07/07 10:17:53;;;;;;;4.07;1.92;;;;;;;28.03;44.35;101134.03;5058397;28;19958;-71
2023/07/07 10:20:20;;;;;;;3.17;1.50;;;;;;;27.84;45.19;101125.44;5057064;28;20029;-71
2023/07/07 10:22:46;;;;;;;4.82;2.20;;;;;;;28.04;45.14;101125.75;5053540;28;20376;-71
2023/07/07 10:25:13;;;;;;;2.45;1.90;;;;;;;28.27;45.34;101115.94;5063771;28;20048;-71
2023/07/07 10:27:48;;;;;;;4.18;1.88;;;;;;;28.28;44.18;101121.06;5070943;28;20033;-71
2023/07/07 10:30:13;;;;;;;2.83;1.98;;;;;;;28.57;45.11;101121.72;5070306;28;20033;-72
2023/07/07 10:32:40;;;;;;;3.03;1.65;;;;;;;28.49;44.79;101124.81;5068893;28;20032;-72
2023/07/07 10:35:07;;;;;;;3.17;1.50;;;;;;;28.67;44.66;101131.75;5063784;28;20037;-71
2023/07/07 10:37:34;;;;;;;2.33;1.73;;;;;;;28.65;44.15;101123.16;5058395;28;20047;-72
2023/07/07 10:40:01;;;;;;;2.67;1.90;;;;;;;28.56;45.17;101120.09;5069430;28;20705;-72
2023/07/07 10:42:29;;;;;;;3.10;2.00;;;;;;;28.58;45.49;101122.53;5064094;28;20418;-72
2023/07/07 10:45:00;;;;;;;3.05;1.58;;;;;;;28.46;45.62;101119.13;5065073;28;20025;-72
2023/07/07 10:47:30;;;;;;;4.30;1.38;;;;;;;28.58;46.15;101107.25;5057584;28;20036;-73
2023/07/07 10:49:59;;;;;;;3.13;1.67;;;;;;;28.60;45.18;101121.22;5057736;28;20032;-72
2023/07/07 10:52:58;;;;;;;2.38;1.60;;;;;;;28.71;42.70;101117.63;5067754;28;20801;-72
2023/07/07 10:55:34;;;;;;;4.40;1.60;;;;;;;28.79;45.37;101124.41;5070226;28;20036;-72
2023/07/07 10:58:02;;;;;;;2.83;1.80;;;;;;;28.77;44.96;101123.03;5071160;28;20033;-72
2023/07/07 11:01:03;;;;;;;3.00;1.85;;;;;;;28.63;43.47;101118.03;5069849;28;20488;-71
2023/07/07 11:03:52;;;;;;;2.08;1.42;;;;;;;28.90;43.55;101115.44;5043500;28;20036;-72
2023/07/07 11:06:41;;;;;;;3.38;1.58;;;;;;;28.81;43.36;101111.56;5032175;28;20057;-72
2023/07/07 11:09:25;;;;;;;2.60;1.92;;;;;;;28.89;43.35;101113.81;5046621;28;20029;-72
2023/07/07 11:12:05;;;;;;;3.85;1.65;;;;;;;29.00;43.13;101104.03;5041503;28;20029;-72
2023/07/07 11:15:04;;;;;;;3.08;1.83;;;;;;;28.68;44.02;101102.03;5043541;28;20056;-72
2023/07/07 11:17:32;;;;;;;2.25;1.60;;;;;;;28.85;44.24;101098.47;5045621;28;20033;-72
2023/07/07 11:20:16;;;;;;;2.10;1.80;;;;;;;28.95;44.06;101094.06;5038681;28;20045;-72
2023/07/07 11:22:56;;;;;;;2.90;1.85;;;;;;;28.91;44.32;101100.16;5040003;28;20037;-72
2023/07/07 11:25:28;;;;;;;6.00;2.05;;;;;;;29.06;43.91;101100.34;5042110;28;20045;-72
2023/07/07 11:28:06;;;;;;;3.50;2.17;;;;;;;29.11;42.74;101100.41;5048843;28;20072;-72
2023/07/07 11:31:10;;;;;;;2.30;1.48;;;;;;;29.16;43.58;101099.66;5048647;28;20036;-72
2023/07/07 11:34:19;;;;;;;1.90;1.55;;;;;;;29.12;42.93;101103.91;5045837;28;20407;-72
2023/07/07 11:37:29;;;;;;;2.78;1.85;;;;;;;29.01;42.80;101102.97;5046210;28;20025;-72